Time;durP1;ratioP1;P1;durP2;ratioP2;P2;SDS_P1;SDS_P2;PMS_P1;PMS_P2;Temp;Humidity;BMP_temperature;BMP_pressure;BME280_temperature;BME280_humidity;BME280_pressure;Samples;Min_cycle;Max_cycle;Signal;HPM_P1;HPM_P2
2021/12/05 00:16:52;;;;;;;24.50;13.38;;;;;;;3.48;100.00;100439.64;1696322;83;21500;-67
2021/12/05 00:22:32;;;;;;;34.08;18.52;;;;;;;3.38;100.00;100445.30;1695745;84;21097;-67
2021/12/05 00:25:02;;;;;;;32.55;18.55;;;;;;;3.33;100.00;100441.56;1697055;84;21152;-67
2021/12/05 00:27:56;;;;;;;30.50;18.48;;;;;;;3.27;100.00;100433.19;1695539;84;21041;-67
2021/12/05 01:13:28;;;;;;;28.05;15.63;;;;;;;3.34;100.00;100417.78;1697426;83;21069;-68
2021/12/05 01:15:41;;;;;;;28.62;16.10;;;;;;;3.32;100.00;100417.41;1692990;84;21057;-67
2021/12/05 01:18:16;;;;;;;31.40;16.67;;;;;;;3.34;100.00;100416.95;1694655;83;21377;-67
2021/12/05 01:20:52;;;;;;;30.77;18.48;;;;;;;3.34;100.00;100408.05;1656895;85;21543;-68
2021/12/05 01:31:49;;;;;;;32.55;17.77;;;;;;;3.41;100.00;100401.56;1697756;83;21521;-67
2021/12/05 01:34:30;;;;;;;28.83;16.15;;;;;;;3.40;100.00;100404.13;1692759;84;21085;-67
2021/12/05 01:37:13;;;;;;;28.55;17.20;;;;;;;3.43;100.00;100409.59;1694881;83;21034;-67
2021/12/05 01:47:55;;;;;;;28.00;15.70;;;;;;;3.24;100.00;100401.42;1651577;85;21518;-67
2021/12/05 01:55:33;;;;;;;29.30;16.23;;;;;;;3.23;100.00;100409.49;1676148;85;21008;-67
2021/12/05 02:08:54;;;;;;;28.07;16.50;;;;;;;3.27;100.00;100404.77;1676276;85;21559;-67
2021/12/05 02:11:20;;;;;;;30.65;15.98;;;;;;;3.30;100.00;100401.33;1666923;85;21091;-67
2021/12/05 02:43:19;;;;;;;30.27;16.75;;;;;;;2.92;100.00;100368.41;1675633;85;21051;-67
2021/12/05 02:45:47;;;;;;;29.02;16.25;;;;;;;2.90;100.00;100360.83;1668042;85;21044;-67
2021/12/05 02:48:15;;;;;;;27.90;16.32;;;;;;;2.90;100.00;100360.83;1676282;85;21161;-67
2021/12/05 02:50:43;;;;;;;29.70;16.48;;;;;;;2.87;100.00;100376.55;1662328;85;21584;-67
2021/12/05 02:53:20;;;;;;;25.02;14.75;;;;;;;2.90;100.00;100372.27;1672913;85;21601;-67
2021/12/05 02:55:50;;;;;;;24.75;13.93;;;;;;;2.92;100.00;100381.12;1675107;85;21112;-67
2021/12/05 03:01:19;;;;;;;26.12;14.70;;;;;;;2.90;100.00;100374.81;1675802;85;21633;-67
2021/12/05 03:03:44;;;;;;;26.90;15.35;;;;;;;3.01;100.00;100393.71;1675845;85;22146;-66
2021/12/05 03:06:19;;;;;;;26.93;15.75;;;;;;;2.96;100.00;100396.33;1667341;85;21091;-67
2021/12/05 03:08:49;;;;;;;28.12;16.57;;;;;;;2.95;100.00;100397.18;1666706;85;21004;-67
2021/12/05 03:11:16;;;;;;;29.27;15.55;;;;;;;3.02;100.00;100395.38;1669466;85;21067;-67
2021/12/05 03:13:44;;;;;;;25.85;15.10;;;;;;;3.02;100.00;100395.38;1669736;85;21091;-67
2021/12/05 03:16:14;;;;;;;24.90;14.20;;;;;;;3.00;100.00;100394.56;1673962;85;21037;-67
2021/12/05 03:18:42;;;;;;;25.17;14.83;;;;;;;3.01;100.00;100392.00;1669582;85;21059;-67
2021/12/05 03:21:11;;;;;;;23.25;14.28;;;;;;;3.06;100.00;100394.91;1630610;86;21036;-67
2021/12/05 03:23:42;;;;;;;25.88;14.95;;;;;;;3.03;100.00;100398.78;1664659;85;21095;-67
2021/12/05 03:26:14;;;;;;;25.90;14.83;;;;;;;3.03;100.00;100398.78;1664246;86;21063;-67
2021/12/05 03:28:42;;;;;;;25.45;15.32;;;;;;;3.05;100.00;100397.06;1632646;86;21079;-67
2021/12/05 03:31:11;;;;;;;27.35;14.87;;;;;;;3.01;100.00;100400.91;1666692;85;21093;-67
2021/12/05 03:33:38;;;;;;;21.97;12.23;;;;;;;3.11;100.00;100395.25;1685510;84;21061;-67
2021/12/05 03:36:09;;;;;;;24.02;13.20;;;;;;;3.05;100.00;100400.88;1695641;83;21542;-67
2021/12/05 03:38:39;;;;;;;23.70;14.13;;;;;;;3.05;100.00;100400.88;1695464;83;21165;-67
2021/12/05 03:41:09;;;;;;;24.12;13.40;;;;;;;3.16;100.00;100407.89;1696778;83;21108;-67
2021/12/05 03:43:41;;;;;;;20.10;12.43;;;;;;;3.25;100.00;100406.94;1696432;84;21147;-67
2021/12/05 03:46:09;;;;;;;20.50;11.83;;;;;;;3.24;100.00;100398.88;1695307;84;21014;-67
2021/12/05 03:48:42;;;;;;;18.45;10.75;;;;;;;3.24;100.00;100399.71;1695223;84;21017;-67
2021/12/05 03:51:13;;;;;;;17.35;10.68;;;;;;;3.27;100.00;100406.03;1697350;83;21562;-67
2021/12/05 03:53:41;;;;;;;19.87;11.03;;;;;;;3.21;100.00;100412.05;1696475;83;21078;-66
2021/12/05 03:56:10;;;;;;;15.68;9.80;;;;;;;3.17;100.00;100409.15;1695697;83;21050;-67
2021/12/05 03:58:39;;;;;;;16.05;9.83;;;;;;;3.19;100.00;100415.49;1697444;83;21478;-67
2021/12/05 04:01:09;;;;;;;14.90;9.68;;;;;;;3.13;100.00;100410.50;1695735;83;21044;-66
2021/12/05 04:03:41;;;;;;;17.23;9.85;;;;;;;3.19;100.00;100421.85;1696743;83;21545;-67
2021/12/05 04:06:13;;;;;;;18.98;10.58;;;;;;;3.19;100.00;100432.03;1696681;83;21057;-66
2021/12/05 04:08:41;;;;;;;15.58;10.10;;;;;;;3.17;100.00;100432.48;1650258;85;21549;-67
2021/12/05 04:11:21;;;;;;;19.40;11.12;;;;;;;3.13;100.00;100432.12;1689957;83;21101;-68
2021/12/05 04:13:49;;;;;;;19.82;11.73;;;;;;;3.09;100.00;100436.84;1695726;83;21022;-67
2021/12/05 04:16:17;;;;;;;18.50;12.13;;;;;;;3.10;100.00;100444.45;1695901;83;21549;-67
2021/12/05 04:18:46;;;;;;;21.90;13.08;;;;;;;3.06;100.00;100450.41;1697560;84;21049;-67
2021/12/05 04:21:16;;;;;;;21.80;12.28;;;;;;;3.05;100.00;100459.36;1696036;83;21069;-67
2021/12/05 04:23:45;;;;;;;18.12;11.75;;;;;;;3.09;100.00;100454.20;1696628;83;21097;-67
2021/12/05 04:26:14;;;;;;;21.60;12.88;;;;;;;3.08;100.00;100450.41;1654225;85;21075;-67
2021/12/05 04:28:43;;;;;;;21.82;13.35;;;;;;;3.03;100.00;100453.46;1661126;84;21082;-67
2021/12/05 04:31:10;;;;;;;19.40;12.68;;;;;;;2.97;100.00;100461.56;1663778;84;21508;-67
2021/12/05 04:33:40;;;;;;;20.60;12.65;;;;;;;3.00;100.00;100447.96;1658264;84;21583;-67
2021/12/05 04:36:08;;;;;;;20.32;12.30;;;;;;;2.91;100.00;100465.47;1655169;84;21543;-67
2021/12/05 04:38:35;;;;;;;21.35;11.70;;;;;;;2.91;100.00;100465.47;1671082;84;21015;-67
2021/12/05 04:41:03;;;;;;;20.68;12.30;;;;;;;2.98;100.00;100464.53;1666814;84;21654;-67
2021/12/05 04:43:37;;;;;;;19.85;12.03;;;;;;;2.96;100.00;100469.20;1651650;84;21102;-67
2021/12/05 04:46:01;;;;;;;18.90;12.05;;;;;;;2.94;100.00;100469.25;1685301;84;21563;-66
2021/12/05 04:48:30;;;;;;;20.92;12.15;;;;;;;2.84;100.00;100467.69;1686185;85;21552;-67
2021/12/05 04:50:59;;;;;;;16.82;12.07;;;;;;;2.83;100.00;100470.25;1681707;84;21556;-68
2021/12/05 04:53:28;;;;;;;18.95;11.30;;;;;;;2.77;100.00;100478.34;1697248;83;21046;-67
2021/12/05 04:55:57;;;;;;;19.57;11.90;;;;;;;2.77;100.00;100478.34;1697615;83;21025;-68
2021/12/05 04:58:25;;;;;;;20.32;11.15;;;;;;;2.83;100.00;100486.33;1652819;84;21107;-67
2021/12/05 05:00:57;;;;;;;19.73;11.45;;;;;;;2.79;100.00;100488.50;1659481;84;21059;-67
2021/12/05 05:03:26;;;;;;;16.77;11.43;;;;;;;2.81;100.00;100491.43;1661601;84;21110;-68
2021/12/05 05:06:07;;;;;;;21.45;11.93;;;;;;;2.83;100.00;100496.50;1667215;84;21525;-66
2021/12/05 05:08:31;;;;;;;18.85;11.35;;;;;;;2.83;100.00;100499.05;1685948;84;21050;-67
2021/12/05 05:11:05;;;;;;;19.52;11.63;;;;;;;2.85;100.00;100503.68;1642125;85;21056;-67
2021/12/05 05:13:33;;;;;;;21.65;12.20;;;;;;;2.80;100.00;100510.54;1665645;84;21134;-66
2021/12/05 05:16:02;;;;;;;18.65;11.45;;;;;;;2.79;100.00;100517.30;1671155;85;22664;-67
2021/12/05 05:18:37;;;;;;;17.90;11.63;;;;;;;2.85;100.00;100524.02;1667812;84;21103;-66
2021/12/05 05:21:09;;;;;;;18.98;11.05;;;;;;;2.89;100.00;100519.30;1672292;85;21087;-66
2021/12/05 05:26:38;;;;;;;18.17;11.12;;;;;;;2.75;100.00;100523.72;1673637;84;21072;-67
2021/12/05 05:29:03;;;;;;;19.85;12.03;;;;;;;2.74;100.00;100524.16;1667725;84;21067;-67
2021/12/05 05:49:58;;;;;;;22.85;12.95;;;;;;;2.60;100.00;100541.27;1667018;86;21590;-67
2021/12/05 05:52:21;;;;;;;22.20;13.75;;;;;;;2.60;100.00;100541.27;1651810;85;21107;-67
2021/12/05 05:54:50;;;;;;;21.35;13.20;;;;;;;2.34;100.00;100523.74;1665646;85;21016;-68
2021/12/05 06:00:18;;;;;;;24.40;15.23;;;;;;;2.26;100.00;100521.27;1654437;85;21039;-69
2021/12/05 06:05:34;;;;;;;28.67;15.63;;;;;;;2.12;100.00;100521.39;1660325;85;21028;-68
2021/12/05 06:08:00;;;;;;;28.70;16.73;;;;;;;2.16;100.00;100519.67;1656055;84;21571;-68
2021/12/05 06:10:30;;;;;;;28.27;17.23;;;;;;;2.16;100.00;100519.67;1657180;85;21566;-69
2021/12/05 06:12:58;;;;;;;28.80;16.57;;;;;;;2.26;100.00;100522.98;1671253;85;21059;-69
2021/12/05 06:15:27;;;;;;;29.10;17.07;;;;;;;2.23;100.00;100531.87;1675186;85;21367;-70
2021/12/05 06:17:56;;;;;;;29.95;17.05;;;;;;;2.22;100.00;100533.59;1673103;83;21051;-69
2021/12/05 06:20:27;;;;;;;30.77;18.15;;;;;;;2.22;100.00;100526.41;1671006;85;21638;-70
2021/12/05 06:22:55;;;;;;;34.73;18.27;;;;;;;2.16;100.00;100520.52;1675921;85;21484;-69
2021/12/05 06:25:26;;;;;;;32.88;17.82;;;;;;;2.16;100.00;100515.44;1663055;85;21146;-69
2021/12/05 06:28:04;;;;;;;31.97;18.42;;;;;;;2.03;100.00;100516.41;1672604;85;21087;-69
2021/12/05 06:30:47;;;;;;;36.45;18.12;;;;;;;1.94;100.00;100516.05;1672658;85;21556;-69
2021/12/05 06:46:22;;;;;;;33.38;18.65;;;;;;;1.60;100.00;100506.59;1733773;82;21011;-70
2021/12/05 06:48:48;;;;;;;33.25;17.65;;;;;;;1.51;100.00;100503.70;1733854;80;21612;-70
2021/12/05 06:51:19;;;;;;;34.10;18.92;;;;;;;1.58;100.00;100499.41;1728810;82;21563;-70
2021/12/05 06:53:47;;;;;;;38.28;19.52;;;;;;;1.57;100.00;100498.58;1723021;82;21071;-70
2021/12/05 06:56:14;;;;;;;35.88;20.30;;;;;;;1.42;100.00;100497.84;1731356;82;21086;-69
2021/12/05 06:58:41;;;;;;;38.90;20.30;;;;;;;1.42;100.00;100490.23;1727015;81;21023;-69
2021/12/05 07:01:10;;;;;;;35.65;19.80;;;;;;;1.40;100.00;100492.80;1730461;82;21587;-68
2021/12/05 07:03:42;;;;;;;37.85;21.02;;;;;;;1.38;100.00;100495.77;1732953;82;21041;-68
2021/12/05 07:06:11;;;;;;;41.80;21.12;;;;;;;1.37;100.00;100494.91;1730407;82;21487;-68
2021/12/05 07:08:42;;;;;;;38.20;20.50;;;;;;;1.33;100.00;100502.55;1723375;81;21110;-69
2021/12/05 07:11:35;;;;;;;37.17;20.25;;;;;;;1.37;100.00;100499.98;1729336;82;21035;-68
2021/12/05 07:16:37;;;;;;;43.85;23.45;;;;;;;1.64;100.00;100503.61;1723842;82;21615;-69
2021/12/05 07:21:32;;;;;;;42.80;21.68;;;;;;;2.00;100.00;100509.65;1733274;82;21000;-70
2021/12/05 07:26:47;;;;;;;38.58;20.60;;;;;;;2.12;100.00;100526.47;1725813;82;21040;-69
2021/12/05 07:40:24;;;;;;;41.55;22.60;;;;;;;2.17;100.00;100528.56;1729232;82;21047;-69
2021/12/05 07:42:48;;;;;;;36.25;20.00;;;;;;;2.38;100.00;100535.55;1735957;82;21033;-70
2021/12/05 07:45:22;;;;;;;37.63;20.68;;;;;;;2.51;100.00;100540.08;1727649;81;20984;-69
2021/12/05 07:47:54;;;;;;;32.85;18.17;;;;;;;2.70;100.00;100539.03;1739122;81;21091;-70
2021/12/05 07:50:32;;;;;;;32.78;18.48;;;;;;;2.58;100.00;100552.70;1729831;82;21563;-69
2021/12/05 07:52:53;;;;;;;31.70;17.77;;;;;;;2.75;100.00;100573.28;1732548;81;21068;-70
2021/12/05 07:55:29;;;;;;;28.70;16.82;;;;;;;2.70;100.00;100582.23;1734071;82;21001;-69
2021/12/05 08:16:58;;;;;;;27.77;16.37;;;;;;;3.30;100.00;100575.16;1734331;82;20976;-69
2021/12/05 08:19:24;;;;;;;30.45;17.90;;;;;;;3.30;100.00;100575.16;1718950;82;21162;-70
2021/12/05 08:21:55;;;;;;;27.75;16.75;;;;;;;3.23;100.00;100579.94;1726914;82;21038;-70
2021/12/05 08:24:25;;;;;;;28.45;16.93;;;;;;;3.26;100.00;100573.52;1735919;82;21062;-69
2021/12/05 08:26:53;;;;;;;27.65;16.48;;;;;;;3.15;100.00;100562.22;1722641;81;20996;-70
2021/12/05 08:29:31;;;;;;;29.65;17.37;;;;;;;2.98;100.00;100574.28;1740423;82;20997;-68
2021/12/05 08:34:43;;;;;;;25.68;15.80;;;;;;;2.86;100.00;100581.65;1727474;82;21512;-70
2021/12/05 08:37:39;;;;;;;32.03;18.17;;;;;;;2.78;100.00;100575.81;1739512;80;20988;-70
2021/12/05 09:27:02;;;;;;;28.32;16.42;;;;;;;3.51;100.00;100535.04;1742429;81;21090;-69
2021/12/05 09:29:38;;;;;;;26.25;15.32;;;;;;;3.39;100.00;100547.50;1738106;81;21057;-68
2021/12/05 09:51:16;;;;;;;25.30;15.10;;;;;;;2.92;100.00;100536.22;1731313;81;21590;-68
2021/12/05 10:01:57;;;;;;;22.05;12.65;;;;;;;3.30;100.00;100558.63;1730938;82;20987;-68
2021/12/05 10:17:37;;;;;;;22.30;13.62;;;;;;;3.39;100.00;100581.41;1729618;81;21068;-68
2021/12/05 10:35:10;;;;;;;21.02;12.85;;;;;;;3.64;100.00;100609.07;1719390;81;21044;-69
2021/12/05 10:37:12;;;;;;;22.77;14.20;;;;;;;3.52;100.00;100606.70;1726026;82;21498;-70
2021/12/05 10:39:39;;;;;;;26.60;14.95;;;;;;;3.51;100.00;100609.68;1722539;81;21599;-68
2021/12/05 10:42:36;;;;;;;22.82;13.88;;;;;;;3.57;100.00;100602.40;1732011;81;21060;-68
2021/12/05 10:44:53;;;;;;;22.52;12.35;;;;;;;3.55;100.00;100608.77;1705464;82;21063;-68
2021/12/05 10:47:42;;;;;;;21.40;13.43;;;;;;;3.58;100.00;100615.08;1736572;81;21018;-68
2021/12/05 10:50:37;;;;;;;20.80;12.07;;;;;;;3.65;100.00;100607.36;1735917;82;21103;-68
2021/12/05 10:53:43;;;;;;;25.25;14.00;;;;;;;3.74;100.00;100611.89;1735282;82;21068;-68
2021/12/05 10:56:36;;;;;;;22.60;12.70;;;;;;;3.56;100.00;100615.97;1727869;82;21023;-66
2021/12/05 10:59:20;;;;;;;22.58;13.00;;;;;;;3.44;100.00;100606.79;1716140;81;20995;-68
2021/12/05 11:01:55;;;;;;;21.48;11.63;;;;;;;3.48;100.00;100615.23;1728402;81;21019;-68
2021/12/05 11:04:27;;;;;;;18.62;11.60;;;;;;;3.47;100.00;100616.95;1727840;81;20964;-68
2021/12/05 11:07:09;;;;;;;17.07;10.88;;;;;;;3.44;100.00;100609.77;1722993;82;21135;-67
2021/12/05 11:09:44;;;;;;;18.73;11.35;;;;;;;3.48;100.00;100620.33;1740156;81;21567;-67
2021/12/05 11:12:35;;;;;;;22.22;12.00;;;;;;;3.64;100.00;100615.44;1734027;82;21032;-68
2021/12/05 11:15:04;;;;;;;20.50;11.50;;;;;;;3.72;100.00;100633.98;1720256;82;21019;-68
2021/12/05 11:17:37;;;;;;;20.50;11.10;;;;;;;3.78;100.00;100640.27;1726980;82;21059;-67
2021/12/05 11:20:09;;;;;;;20.70;11.12;;;;;;;3.76;100.00;100638.62;1718532;82;21014;-68
2021/12/05 11:22:41;;;;;;;19.77;11.85;;;;;;;3.70;100.00;100643.80;1727195;81;21025;-68
2021/12/05 11:25:18;;;;;;;23.42;13.40;;;;;;;3.73;100.00;100647.55;1733798;82;21090;-68
2021/12/05 11:27:58;;;;;;;23.70;13.85;;;;;;;3.73;100.00;100645.00;1736455;82;21012;-68
2021/12/05 11:30:33;;;;;;;20.97;12.25;;;;;;;3.73;100.00;100649.69;1729063;82;21143;-68
2021/12/05 11:33:06;;;;;;;16.70;10.80;;;;;;;3.61;100.00;100649.86;1738736;82;21448;-68
2021/12/05 11:35:42;;;;;;;18.50;11.43;;;;;;;3.61;100.00;100653.23;1736011;82;21029;-68
2021/12/05 11:38:27;;;;;;;21.45;12.88;;;;;;;3.70;100.00;100644.63;1730642;81;21023;-68
2021/12/05 11:41:10;;;;;;;20.52;12.78;;;;;;;3.80;100.00;100655.09;1735605;81;21027;-68
2021/12/05 11:43:54;;;;;;;18.82;11.63;;;;;;;3.93;100.00;100662.12;1738461;82;20999;-69
2021/12/05 11:46:36;;;;;;;18.92;11.88;;;;;;;3.94;100.00;100664.26;1741268;82;21567;-68
2021/12/05 11:49:10;;;;;;;25.37;13.80;;;;;;;4.02;100.00;100661.17;1739815;82;21081;-68
2021/12/05 11:51:52;;;;;;;;;;;;;;;4.06;100.00;100666.63;1727922;82;21058;-68
2021/12/05 11:54:37;;;;;;;17.60;10.68;;;;;;;4.06;100.00;100665.80;1736910;81;20427;-68
2021/12/05 11:57:07;;;;;;;;;;;;;;;4.06;100.00;100673.44;1731877;81;21084;-68
2021/12/05 11:59:51;;;;;;;17.75;10.65;;;;;;;4.04;100.00;100686.19;1743304;81;20182;-67
2021/12/05 12:02:30;;;;;;;18.87;11.55;;;;;;;3.96;100.00;100689.27;1740499;82;21036;-68
2021/12/05 12:05:07;;;;;;;19.35;11.68;;;;;;;3.96;100.00;100686.73;1734929;82;21015;-68
2021/12/05 12:07:50;;;;;;;14.58;9.45;;;;;;;4.00;100.00;100689.20;1738689;81;20995;-67
2021/12/05 12:10:26;;;;;;;15.60;9.78;;;;;;;3.86;100.00;100700.02;1728492;82;21023;-67
2021/12/05 12:13:04;;;;;;;14.50;9.53;;;;;;;3.88;100.00;100706.37;1723371;81;20961;-67
2021/12/05 12:15:32;;;;;;;17.73;10.70;;;;;;;3.93;100.00;100705.41;1715103;82;21015;-68
2021/12/05 12:18:10;;;;;;;17.95;10.55;;;;;;;4.01;100.00;100701.09;1723100;82;21034;-68
2021/12/05 12:20:38;;;;;;;14.95;9.78;;;;;;;4.02;100.00;100700.65;1716116;82;21043;-68
2021/12/05 12:23:07;;;;;;;14.47;9.53;;;;;;;3.96;100.00;100710.48;1732761;82;21047;-68
2021/12/05 12:25:39;;;;;;;17.25;10.50;;;;;;;3.91;100.00;100704.59;1732136;82;21473;-68
2021/12/05 12:28:08;;;;;;;21.52;11.78;;;;;;;3.97;100.00;100708.77;1731426;81;21511;-66
2021/12/05 12:30:43;;;;;;;22.20;12.98;;;;;;;3.94;100.00;100708.83;1735130;81;21051;-68
2021/12/05 12:33:15;;;;;;;22.98;12.10;;;;;;;3.98;100.00;100707.92;1734579;82;21041;-68
2021/12/05 12:35:48;;;;;;;18.20;11.35;;;;;;;3.85;100.00;100707.22;1729617;81;21511;-68
2021/12/05 12:38:23;;;;;;;21.95;13.90;;;;;;;3.81;100.00;100707.72;1738605;82;20992;-68
2021/12/05 12:41:04;;;;;;;19.40;12.00;;;;;;;3.80;100.00;100712.38;1736869;81;21508;-68
2021/12/05 12:43:56;;;;;;;21.50;12.63;;;;;;;3.78;100.00;100715.82;1732504;82;20992;-67
2021/12/05 12:46:50;;;;;;;42.27;29.67;;;;;;;3.74;100.00;100707.81;1739134;81;20996;-68
2021/12/05 12:49:22;;;;;;;29.50;23.18;;;;;;;3.65;100.00;100713.00;1731171;82;21055;-68
2021/12/05 12:51:57;;;;;;;32.08;24.07;;;;;;;3.57;100.00;100724.14;1731394;82;21027;-68
2021/12/05 12:54:48;;;;;;;21.77;14.13;;;;;;;3.56;100.00;100729.23;1735677;82;21111;-68
2021/12/05 12:57:20;;;;;;;21.57;12.55;;;;;;;3.53;100.00;100728.85;1735842;83;21000;-68
2021/12/05 13:00:00;;;;;;;21.80;12.55;;;;;;;3.52;100.00;100733.52;1735195;81;20992;-68
2021/12/05 13:02:56;;;;;;;24.85;14.63;;;;;;;3.52;100.00;100725.88;1735550;82;21535;-68
2021/12/05 13:07:21;;;;;;;21.95;14.18;;;;;;;3.54;100.00;100721.61;1721641;81;21027;-68
2021/12/05 13:10:41;;;;;;;23.47;13.80;;;;;;;3.54;100.00;100719.06;1737207;81;21096;-67
2021/12/05 13:13:25;;;;;;;19.25;10.90;;;;;;;3.63;100.00;100718.14;1694912;83;21138;-68
2021/12/05 13:15:59;;;;;;;16.30;10.53;;;;;;;3.63;100.00;100708.36;1671176;84;21066;-68
2021/12/05 13:18:35;;;;;;;15.63;9.68;;;;;;;3.58;100.00;100709.27;1665041;85;21050;-68
2021/12/05 13:21:07;;;;;;;19.50;10.48;;;;;;;3.54;100.00;100706.34;1663158;85;21061;-68
2021/12/05 13:23:50;;;;;;;17.12;10.88;;;;;;;3.52;100.00;100710.61;1683796;84;21118;-68
2021/12/05 13:26:25;;;;;;;20.65;12.37;;;;;;;3.51;100.00;100714.47;1673896;85;21664;-68
2021/12/05 13:28:57;;;;;;;24.32;14.23;;;;;;;3.55;100.00;100708.48;1680385;84;21019;-68
2021/12/05 13:31:35;;;;;;;39.80;23.00;;;;;;;3.53;100.00;100705.11;1669561;85;21166;-67
2021/12/05 13:34:45;;;;;;;43.87;24.40;;;;;;;3.54;100.00;100711.87;1666175;85;21308;-68
2021/12/05 13:37:17;;;;;;;48.50;24.25;;;;;;;3.44;100.00;100714.95;1672099;84;21100;-67
2021/12/05 13:40:18;;;;;;;49.45;24.92;;;;;;;3.36;100.00;100715.46;1702597;83;21064;-68
2021/12/05 13:42:56;;;;;;;48.87;24.60;;;;;;;3.24;100.00;100721.52;1673807;84;21089;-67
2021/12/05 13:45:31;;;;;;;52.65;24.70;;;;;;;3.25;100.00;100716.86;1662631;85;21066;-68
2021/12/05 13:48:08;;;;;;;42.78;22.93;;;;;;;3.20;100.00;100713.50;1673983;84;21011;-68
2021/12/05 13:50:43;;;;;;;40.70;21.37;;;;;;;3.15;100.00;100705.09;1675508;85;21087;-67
2021/12/05 13:53:15;;;;;;;45.20;24.00;;;;;;;3.15;100.00;100690.67;1666534;85;21558;-68
2021/12/05 13:56:02;;;;;;;50.03;25.52;;;;;;;3.14;100.00;100675.41;1666168;85;21129;-67
2021/12/05 13:58:47;;;;;;;46.10;25.02;;;;;;;3.15;100.00;100670.32;1658347;85;21079;-68
2021/12/05 14:01:34;;;;;;;44.18;24.80;;;;;;;3.15;100.00;100672.03;1698464;84;21023;-68
2021/12/05 14:04:24;;;;;;;45.78;24.20;;;;;;;3.14;100.00;100676.28;1653433;85;21061;-67
2021/12/05 14:07:06;;;;;;;52.88;27.60;;;;;;;3.09;100.00;100666.57;1658382;85;21614;-67
2021/12/05 14:09:44;;;;;;;52.78;27.85;;;;;;;3.13;100.00;100676.29;1659762;85;21583;-68
2021/12/05 14:12:17;;;;;;;50.75;26.15;;;;;;;3.04;100.00;100687.38;1642719;85;21638;-68
2021/12/05 14:14:55;;;;;;;53.08;27.25;;;;;;;3.03;100.00;100686.15;1692279;83;21109;-67
2021/12/05 14:17:31;;;;;;;47.20;24.80;;;;;;;3.05;100.00;100681.89;1711340;83;21777;-67
2021/12/05 14:20:03;;;;;;;45.70;23.60;;;;;;;3.12;100.00;100674.19;1694184;83;21066;-67
2021/12/05 14:22:35;;;;;;;48.35;24.40;;;;;;;3.17;100.00;100681.32;1709613;82;21064;-67
2021/12/05 14:25:09;;;;;;;46.00;24.30;;;;;;;3.20;100.00;100688.06;1695136;83;21149;-67
2021/12/05 14:27:48;;;;;;;49.70;24.82;;;;;;;3.27;100.00;100701.59;1672615;85;21883;-67
2021/12/05 14:30:21;;;;;;;45.90;24.35;;;;;;;3.28;100.00;100696.45;1669939;84;21575;-67
2021/12/05 14:32:57;;;;;;;44.73;24.60;;;;;;;3.29;100.00;100705.79;1644308;85;21114;-67
2021/12/05 14:35:28;;;;;;;47.93;24.80;;;;;;;3.30;100.00;100705.36;1647340;85;21129;-67
2021/12/05 14:37:55;;;;;;;50.33;25.12;;;;;;;3.32;100.00;100700.66;1691704;83;21116;-67
2021/12/05 14:40:32;;;;;;;51.77;26.50;;;;;;;3.32;100.00;100705.74;1669956;85;21534;-67
2021/12/05 14:43:04;;;;;;;43.23;23.40;;;;;;;3.27;100.00;100713.03;1672182;85;21883;-67
2021/12/05 14:45:37;;;;;;;46.02;23.67;;;;;;;3.26;100.00;100709.62;1667217;86;21638;-67
2021/12/05 14:48:09;;;;;;;49.15;24.92;;;;;;;3.29;100.00;100707.06;1677490;85;21554;-68
2021/12/05 14:50:38;;;;;;;46.90;24.90;;;;;;;3.27;100.00;100697.77;1702180;83;21170;-68
2021/12/05 14:53:09;;;;;;;47.48;24.07;;;;;;;3.22;100.00;100693.98;1699197;83;21083;-67
2021/12/05 14:55:37;;;;;;;52.30;26.40;;;;;;;3.24;100.00;100685.06;1707139;82;21050;-68
2021/12/05 14:58:10;;;;;;;49.38;24.70;;;;;;;3.20;100.00;100677.89;1711329;82;21090;-67
2021/12/05 15:00:42;;;;;;;47.90;24.37;;;;;;;3.25;100.00;100679.97;1690714;82;21492;-67
2021/12/05 15:03:23;;;;;;;43.92;23.85;;;;;;;3.27;100.00;100690.14;1714588;82;21086;-67
2021/12/05 15:05:55;;;;;;;44.60;21.70;;;;;;;3.27;100.00;100699.88;1672001;84;21492;-67
2021/12/05 15:08:26;;;;;;;48.90;24.07;;;;;;;3.30;100.00;100710.44;1675933;84;21136;-66
2021/12/05 15:10:58;;;;;;;42.17;21.97;;;;;;;3.34;100.00;100708.28;1678968;84;21622;-67
2021/12/05 15:13:27;;;;;;;41.67;21.27;;;;;;;3.32;100.00;100704.91;1659520;85;21065;-67
2021/12/05 15:15:54;;;;;;;36.93;18.60;;;;;;;3.30;100.00;100707.45;1703297;83;21045;-67
2021/12/05 15:18:29;;;;;;;39.15;18.70;;;;;;;3.19;100.00;100706.75;1705310;83;21588;-67
2021/12/05 15:20:54;;;;;;;36.08;18.17;;;;;;;3.13;100.00;100713.17;1694323;83;21150;-66
2021/12/05 15:23:21;;;;;;;37.05;18.82;;;;;;;3.18;100.00;100729.22;1696365;83;21166;-67
2021/12/05 15:25:48;;;;;;;37.63;18.67;;;;;;;3.27;100.00;100736.77;1665208;83;21697;-67
2021/12/05 15:28:17;;;;;;;36.20;17.95;;;;;;;3.30;100.00;100739.70;1701857;83;21129;-67
2021/12/05 15:30:47;;;;;;;39.08;19.48;;;;;;;3.33;100.00;100744.34;1693490;83;21086;-67
2021/12/05 15:33:22;;;;;;;36.17;18.27;;;;;;;3.35;100.00;100751.96;1693867;82;21058;-68
2021/12/05 15:35:51;;;;;;;34.20;17.65;;;;;;;3.36;100.00;100760.83;1698275;82;21079;-67
2021/12/05 15:38:23;;;;;;;31.42;16.90;;;;;;;3.43;100.00;100762.03;1690707;84;20996;-67
2021/12/05 15:40:54;;;;;;;33.13;16.97;;;;;;;3.44;100.00;100758.20;1690871;83;21126;-66
2021/12/05 15:43:25;;;;;;;32.48;16.97;;;;;;;3.43;100.00;100767.12;1686502;83;21555;-67
2021/12/05 15:45:56;;;;;;;32.55;16.77;;;;;;;3.44;100.00;100767.11;1690349;83;21047;-67
2021/12/05 15:48:31;;;;;;;30.48;16.70;;;;;;;3.45;100.00;100775.18;1692315;82;21047;-68
2021/12/05 15:51:01;;;;;;;29.90;15.90;;;;;;;3.50;100.00;100773.84;1696587;83;21105;-67
2021/12/05 15:53:33;;;;;;;31.95;16.23;;;;;;;3.52;100.00;100770.86;1691999;84;21031;-68
2021/12/05 15:56:04;;;;;;;30.50;16.87;;;;;;;3.49;100.00;100774.28;1690870;84;21590;-67
2021/12/05 15:58:41;;;;;;;29.45;15.23;;;;;;;3.49;100.00;100778.11;1693173;83;21055;-67
2021/12/05 16:01:19;;;;;;;32.73;17.23;;;;;;;3.48;100.00;100784.48;1675682;83;21045;-66
2021/12/05 16:03:53;;;;;;;27.30;15.00;;;;;;;3.47;100.00;100782.77;1717350;82;21030;-67
2021/12/05 16:06:31;;;;;;;29.20;15.35;;;;;;;3.35;100.00;100785.04;1723328;82;21029;-67
2021/12/05 16:08:57;;;;;;;26.90;15.13;;;;;;;3.38;100.00;100787.10;1742160;82;21023;-67
2021/12/05 16:11:24;;;;;;;23.98;13.32;;;;;;;3.37;100.00;100793.06;1743747;82;21092;-67
2021/12/05 16:13:54;;;;;;;25.90;14.58;;;;;;;3.37;100.00;100789.25;1742641;82;21064;-67
2021/12/05 16:16:25;;;;;;;25.68;14.58;;;;;;;3.38;100.00;100788.81;1742070;82;21037;-67
2021/12/05 16:18:56;;;;;;;26.35;14.95;;;;;;;3.39;100.00;100788.80;1735058;82;21111;-67
2021/12/05 16:21:28;;;;;;;26.15;14.65;;;;;;;3.43;100.00;100787.08;1736859;82;21560;-67
2021/12/05 16:24:14;;;;;;;27.37;15.50;;;;;;;3.44;100.00;100786.64;1745535;82;21111;-67
2021/12/05 16:26:44;;;;;;;24.43;14.18;;;;;;;3.40;100.00;100774.38;1743710;82;21025;-67
2021/12/05 16:29:18;;;;;;;26.82;15.25;;;;;;;3.38;100.00;100773.55;1729110;82;21612;-67
2021/12/05 16:31:53;;;;;;;;;;;;;;;3.37;100.00;100772.70;1722419;82;21051;-67
2021/12/05 16:34:28;;;;;;;26.05;14.43;;;;;;;3.38;100.00;100770.56;1726656;82;20100;-67
2021/12/05 16:37:02;;;;;;;29.18;15.30;;;;;;;3.43;100.00;100770.94;1721742;80;21552;-68
2021/12/05 16:39:44;;;;;;;30.50;16.35;;;;;;;3.45;100.00;100773.91;1730165;82;21574;-67
2021/12/05 16:42:16;;;;;;;27.55;14.70;;;;;;;3.48;100.00;100781.49;1718345;82;21021;-67
2021/12/05 16:44:59;;;;;;;25.15;14.87;;;;;;;3.41;100.00;100782.44;1732189;82;21574;-67
2021/12/05 16:47:31;;;;;;;26.50;14.90;;;;;;;3.37;100.00;100793.06;1727742;81;21028;-67
2021/12/05 16:50:00;;;;;;;27.17;15.30;;;;;;;3.30;100.00;100786.77;1730001;82;21479;-68